createdAt,value
2022-09-17T00:01:33.248Z,19.20
2022-09-17T00:04:04.180Z,19.21
2022-09-17T00:06:35.032Z,19.26
2022-09-17T00:09:06.536Z,19.30
2022-09-17T00:11:39.500Z,19.29
2022-09-17T00:14:10.182Z,19.32
2022-09-17T00:16:42.511Z,19.30
2022-09-17T00:19:18.103Z,19.29
2022-09-17T00:21:45.959Z,19.27
2022-09-17T00:24:15.471Z,19.25
2022-09-17T00:26:42.935Z,19.21
2022-09-17T00:29:11.312Z,19.15
2022-09-17T00:31:39.867Z,19.16
2022-09-17T00:34:07.721Z,19.18
2022-09-17T00:36:39.771Z,19.18
2022-09-17T00:39:10.963Z,19.16
2022-09-17T00:41:39.465Z,19.15
2022-09-17T00:44:50.827Z,19.14
2022-09-17T00:47:23.666Z,19.13
2022-09-17T00:49:59.520Z,19.10
2022-09-17T00:52:41.453Z,19.03
2022-09-17T00:55:24.740Z,19.00
2022-09-17T00:57:56.530Z,18.98
2022-09-17T01:00:24.110Z,18.98
2022-09-17T01:02:53.606Z,18.87
2022-09-17T01:06:07.956Z,18.82
2022-09-17T01:09:04.509Z,18.81
2022-09-17T01:11:56.301Z,18.57
2022-09-17T01:15:12.489Z,18.41
2022-09-17T01:18:21.871Z,18.35
2022-09-17T01:21:08.125Z,18.26
2022-09-17T01:24:15.433Z,18.16
2022-09-17T01:27:20.213Z,18.07
2022-09-17T01:30:10.603Z,17.88
2022-09-17T01:33:15.141Z,17.83
2022-09-17T01:36:09.528Z,17.73
2022-09-17T01:38:57.108Z,17.70
2022-09-17T01:42:02.096Z,17.60
2022-09-17T01:44:59.378Z,17.45
2022-09-17T01:47:37.856Z,17.36
2022-09-17T01:50:13.054Z,17.20
2022-09-17T01:52:44.037Z,16.94
2022-09-17T01:55:16.669Z,16.76
2022-09-17T01:58:16.661Z,16.50
2022-09-17T02:00:52.256Z,16.16
2022-09-17T02:03:45.139Z,16.01
2022-09-17T02:06:21.812Z,15.96
2022-09-17T02:09:01.491Z,15.90
2022-09-17T02:11:29.445Z,15.93
2022-09-17T02:14:03.306Z,15.96
2022-09-17T02:16:37.696Z,15.88
2022-09-17T02:19:28.358Z,15.96
2022-09-17T02:22:33.258Z,16.06
2022-09-17T02:25:44.273Z,15.98
2022-09-17T02:28:40.995Z,15.82
2022-09-17T02:31:09.231Z,15.77
2022-09-17T02:33:39.599Z,15.71
2022-09-17T02:36:07.686Z,15.75
2022-09-17T02:38:35.369Z,15.73
2022-09-17T02:41:20.005Z,15.73
2022-09-17T02:44:10.714Z,15.64
2022-09-17T02:47:02.396Z,15.57
2022-09-17T02:50:09.100Z,15.58
2022-09-17T02:53:02.514Z,15.52
2022-09-17T02:55:52.942Z,15.47
2022-09-17T02:58:53.761Z,15.50
2022-09-17T03:01:44.514Z,15.57
2022-09-17T03:04:17.309Z,15.65
2022-09-17T03:06:48.611Z,15.69
2022-09-17T03:09:16.449Z,15.77
2022-09-17T03:11:44.157Z,15.80
2022-09-17T03:14:11.915Z,15.82
2022-09-17T03:16:39.512Z,15.84
2022-09-17T03:19:07.062Z,15.92
2022-09-17T03:21:34.771Z,15.99
2022-09-17T03:24:02.495Z,15.93
2022-09-17T03:26:29.975Z,15.91
2022-09-17T03:28:59.200Z,15.94
2022-09-17T03:31:26.741Z,15.98
2022-09-17T03:33:54.289Z,16.03
2022-09-17T03:36:21.949Z,16.14
2022-09-17T03:38:49.349Z,16.28
2022-09-17T03:41:16.725Z,16.40
2022-09-17T03:43:44.378Z,16.45
2022-09-17T03:46:11.806Z,16.42
2022-09-17T03:48:39.824Z,16.42
2022-09-17T03:51:07.819Z,16.40
2022-09-17T03:53:35.853Z,16.41
2022-09-17T03:56:06.782Z,16.37
2022-09-17T03:58:35.013Z,16.30
2022-09-17T04:01:04.135Z,16.25
2022-09-17T04:03:32.387Z,16.30
2022-09-17T04:06:00.141Z,16.27
2022-09-17T04:08:27.924Z,16.28
2022-09-17T04:10:55.778Z,16.29
2022-09-17T04:13:23.365Z,16.28
2022-09-17T04:15:52.194Z,16.26
2022-09-17T04:18:19.688Z,16.29
2022-09-17T04:20:47.543Z,16.37
2022-09-17T04:23:15.149Z,16.36
2022-09-17T04:25:42.983Z,16.29
2022-09-17T04:28:11.021Z,16.20
2022-09-17T04:30:38.967Z,16.19
2022-09-17T04:33:06.606Z,16.22
2022-09-17T04:35:34.232Z,16.21
2022-09-17T04:38:01.827Z,16.15
2022-09-17T04:40:29.835Z,16.18
2022-09-17T04:43:03.371Z,16.21
2022-09-17T04:45:33.606Z,16.22
2022-09-17T04:48:02.038Z,16.23
2022-09-17T04:50:29.722Z,16.28
2022-09-17T04:52:57.351Z,16.26
2022-09-17T04:55:25.417Z,16.19
2022-09-17T04:57:53.907Z,16.17
2022-09-17T05:00:23.493Z,16.24
2022-09-17T05:02:54.338Z,16.33
2022-09-17T05:05:23.144Z,16.39
2022-09-17T05:07:50.665Z,16.44
2022-09-17T05:10:20.993Z,16.39
2022-09-17T05:12:53.535Z,16.34
2022-09-17T05:15:22.660Z,16.41
2022-09-17T05:17:50.693Z,16.31
2022-09-17T05:20:19.243Z,16.07
2022-09-17T05:22:52.358Z,15.85
2022-09-17T05:25:24.902Z,15.83
2022-09-17T05:27:54.895Z,15.87
2022-09-17T05:30:23.483Z,15.88
2022-09-17T05:33:00.575Z,15.97
2022-09-17T05:35:29.177Z,16.02
2022-09-17T05:38:04.666Z,16.02
2022-09-17T05:40:33.651Z,16.03
2022-09-17T05:43:07.120Z,16.03
2022-09-17T05:45:37.604Z,15.98
2022-09-17T05:48:10.156Z,16.07
2022-09-17T05:50:38.337Z,16.12
2022-09-17T05:53:12.831Z,15.98
2022-09-17T05:55:41.151Z,15.95
2022-09-17T05:58:18.667Z,15.97
2022-09-17T06:00:48.995Z,15.89
2022-09-17T06:03:19.822Z,15.89
2022-09-17T06:05:59.809Z,15.95
2022-09-17T06:08:29.267Z,15.97
2022-09-17T06:11:01.500Z,15.92
2022-09-17T06:13:29.936Z,15.96
2022-09-17T06:15:58.242Z,15.99
2022-09-17T06:18:27.701Z,15.96
2022-09-17T06:21:02.485Z,15.91
2022-09-17T06:23:35.398Z,15.90
2022-09-17T06:26:04.926Z,15.94
2022-09-17T06:28:35.771Z,15.97
2022-09-17T06:31:07.809Z,15.99
2022-09-17T06:33:36.519Z,15.91
2022-09-17T06:36:13.147Z,15.90
2022-09-17T06:38:42.516Z,15.86
2022-09-17T06:41:27.113Z,15.82
2022-09-17T06:44:21.513Z,15.76
2022-09-17T06:46:52.054Z,15.82
2022-09-17T06:49:19.760Z,15.87
2022-09-17T06:51:47.271Z,15.81
2022-09-17T06:54:15.298Z,15.76
2022-09-17T06:56:43.023Z,15.75
2022-09-17T06:59:10.486Z,15.80
2022-09-17T07:01:38.131Z,15.82
2022-09-17T07:04:06.106Z,15.88
2022-09-17T07:06:33.508Z,15.98
2022-09-17T07:09:01.374Z,16.07
2022-09-17T07:11:31.613Z,16.12
2022-09-17T07:13:59.719Z,16.16
2022-09-17T07:16:28.243Z,16.20
2022-09-17T07:18:56.039Z,16.27
2022-09-17T07:21:23.449Z,16.22
2022-09-17T07:23:51.956Z,16.25
2022-09-17T07:26:20.018Z,16.25
2022-09-17T07:28:47.627Z,16.17
2022-09-17T07:31:16.877Z,16.17
2022-09-17T07:50:37.581Z,16.76
2022-09-17T07:53:05.342Z,16.59
2022-09-17T07:55:32.819Z,16.47
2022-09-17T07:58:00.322Z,16.35
2022-09-17T08:00:27.939Z,16.32
2022-09-17T08:02:56.426Z,16.36
2022-09-17T08:05:25.337Z,16.37
2022-09-17T08:07:55.436Z,16.34
2022-09-17T08:10:23.893Z,16.33
2022-09-17T08:12:57.175Z,16.32
2022-09-17T08:15:25.894Z,16.35
2022-09-17T08:17:53.722Z,16.44
2022-09-17T08:20:21.855Z,16.56
2022-09-17T08:22:50.378Z,16.78
2022-09-17T08:25:18.263Z,16.93
2022-09-17T08:27:45.691Z,17.08
2022-09-17T08:30:13.382Z,17.24
2022-09-17T08:32:40.777Z,17.29
2022-09-17T08:35:09.444Z,17.38
2022-09-17T08:37:37.097Z,17.48
2022-09-17T08:40:05.106Z,17.59
2022-09-17T08:42:51.612Z,17.68
2022-09-17T08:45:21.266Z,17.71
2022-09-17T08:47:49.195Z,17.62
2022-09-17T08:50:18.590Z,17.52
2022-09-17T08:53:23.531Z,17.52
2022-09-17T08:56:09.618Z,17.51
2022-09-17T08:59:31.076Z,17.44
2022-09-17T09:02:56.285Z,17.36
2022-09-17T09:05:46.169Z,17.31
2022-09-17T09:08:35.572Z,17.28
2022-09-17T09:11:13.598Z,17.24
2022-09-17T09:14:10.001Z,17.13
2022-09-17T09:16:42.222Z,17.06
2022-09-17T09:19:45.365Z,17.08
2022-09-17T09:22:47.164Z,17.04
2022-09-17T09:25:18.046Z,17.05
2022-09-17T09:28:17.581Z,17.04
2022-09-17T09:34:14.375Z,17.09
2022-09-17T09:36:42.411Z,17.15
2022-09-17T09:39:28.584Z,17.19
2022-09-17T09:42:16.183Z,17.20
2022-09-17T09:44:45.721Z,17.24
2022-09-17T09:47:34.134Z,17.28
2022-09-17T09:50:31.589Z,17.35
2022-09-17T09:53:25.191Z,17.39
2022-09-17T09:56:23.164Z,17.43
2022-09-17T09:58:50.901Z,17.34
2022-09-17T10:01:23.276Z,17.36
2022-09-17T10:03:54.066Z,17.41
2022-09-17T10:06:21.906Z,17.44
2022-09-17T10:08:55.366Z,17.45
2022-09-17T10:11:27.375Z,17.39
2022-09-17T10:14:26.231Z,17.41
2022-09-17T10:17:16.480Z,17.40
2022-09-17T10:19:45.874Z,17.40
2022-09-17T10:22:25.190Z,17.46
2022-09-17T10:24:55.970Z,17.47
2022-09-17T10:27:25.495Z,17.50
2022-09-17T10:30:08.976Z,17.53
2022-09-17T10:32:36.696Z,17.57
2022-09-17T10:35:15.658Z,17.63
2022-09-17T10:37:52.194Z,17.68
2022-09-17T10:40:19.652Z,17.71
2022-09-17T10:43:16.435Z,17.75
2022-09-17T10:45:59.098Z,17.76
2022-09-17T10:48:34.156Z,17.76
2022-09-17T10:51:03.344Z,17.75
2022-09-17T10:53:31.157Z,17.78
2022-09-17T10:56:13.118Z,17.81
2022-09-17T10:59:31.586Z,17.80
2022-09-17T11:03:00.273Z,17.77
2022-09-17T11:06:14.611Z,17.76
2022-09-17T11:08:50.598Z,17.76
2022-09-17T11:11:52.165Z,17.83
2022-09-17T11:14:50.032Z,17.89
2022-09-17T11:18:01.248Z,17.91
2022-09-17T11:21:16.150Z,17.90
2022-09-17T11:24:23.249Z,17.91
2022-09-17T11:27:17.248Z,17.84
2022-09-17T11:29:55.515Z,17.80
2022-09-17T11:33:08.457Z,17.73
2022-09-17T11:35:47.217Z,17.66
2022-09-17T11:38:30.025Z,17.61
2022-09-17T11:41:05.103Z,17.61
2022-09-17T11:43:36.680Z,17.68
2022-09-17T11:46:44.506Z,17.76
2022-09-17T11:49:47.836Z,17.83
2022-09-17T11:52:48.433Z,17.84
2022-09-17T11:55:33.278Z,17.78
2022-09-17T11:58:12.183Z,17.74
2022-09-17T12:00:52.880Z,17.69
2022-09-17T12:04:03.196Z,17.60
2022-09-17T12:06:49.392Z,17.53
2022-09-17T12:09:26.203Z,17.53
2022-09-17T12:12:01.819Z,17.48
2022-09-17T12:14:51.124Z,17.43
2022-09-17T12:17:40.259Z,17.42
2022-09-17T12:20:29.528Z,17.37
2022-09-17T12:23:00.316Z,17.32
2022-09-17T12:25:39.146Z,17.30
2022-09-17T12:28:20.628Z,17.30
2022-09-17T12:31:05.621Z,17.35
2022-09-17T12:33:45.959Z,17.36
2022-09-17T12:36:48.640Z,17.34
2022-09-17T12:39:30.954Z,17.29
2022-09-17T12:42:58.906Z,17.23
2022-09-17T12:45:47.393Z,17.23
2022-09-17T12:48:41.362Z,17.20
2022-09-17T12:51:32.263Z,17.22
2022-09-17T12:55:00.584Z,17.25
2022-09-17T12:58:01.122Z,17.29
2022-09-17T13:00:29.936Z,17.27
2022-09-17T13:03:22.198Z,17.22
2022-09-17T13:06:40.840Z,17.23
2022-09-17T13:09:55.920Z,17.18
2022-09-17T13:12:58.744Z,17.13
2022-09-17T13:15:47.131Z,17.15
2022-09-17T13:19:17.192Z,17.15
2022-09-17T13:22:07.477Z,17.13
2022-09-17T13:24:37.599Z,17.12
2022-09-17T13:27:05.903Z,17.12
2022-09-17T13:29:45.238Z,17.12
2022-09-17T13:32:38.890Z,17.15
2022-09-17T13:35:18.138Z,17.16
2022-09-17T13:38:01.813Z,17.16
2022-09-17T13:40:35.295Z,17.16
2022-09-17T13:43:06.261Z,17.15
2022-09-17T13:45:54.683Z,17.12
2022-09-17T13:48:25.790Z,17.13
2022-09-17T13:50:53.653Z,17.11
2022-09-17T13:53:26.979Z,17.13
2022-09-17T13:56:04.810Z,17.10
2022-09-17T13:58:36.807Z,17.12
2022-09-17T14:01:27.530Z,17.15
2022-09-17T14:03:57.111Z,17.16
2022-09-17T14:06:24.784Z,17.22
2022-09-17T14:08:57.933Z,17.24
2022-09-17T14:11:26.658Z,17.25
2022-09-17T14:13:55.461Z,17.27
2022-09-17T14:16:29.310Z,17.29
2022-09-17T14:19:23.042Z,17.31
2022-09-17T14:22:06.043Z,17.29
2022-09-17T14:24:38.291Z,17.21
2022-09-17T14:27:14.741Z,17.14
2022-09-17T14:30:01.326Z,17.07
2022-09-17T14:33:03.061Z,16.97
2022-09-17T14:35:36.064Z,16.81
2022-09-17T14:38:17.023Z,16.79
2022-09-17T14:40:58.307Z,16.75
2022-09-17T14:44:02.254Z,16.66
2022-09-17T14:46:40.685Z,16.56
2022-09-17T14:49:28.421Z,16.58
2022-09-17T14:51:58.383Z,16.60
2022-09-17T14:54:26.872Z,16.62
2022-09-17T14:57:08.787Z,16.64
2022-09-17T14:59:52.726Z,16.57
2022-09-17T15:02:41.806Z,16.39
2022-09-17T15:05:19.272Z,16.20
2022-09-17T15:07:47.643Z,16.07
2022-09-17T15:10:21.294Z,15.98
2022-09-17T15:12:50.789Z,15.92
2022-09-17T15:15:23.779Z,15.86
2022-09-17T15:17:52.508Z,15.83
2022-09-17T15:20:31.369Z,15.79
2022-09-17T15:23:16.888Z,15.71
2022-09-17T15:25:47.596Z,15.67
2022-09-17T15:28:33.636Z,15.64
2022-09-17T15:31:01.785Z,15.67
2022-09-17T15:33:31.699Z,15.70
2022-09-17T15:36:30.000Z,15.69
2022-09-17T15:38:59.119Z,15.64
2022-09-17T15:41:35.903Z,15.63
2022-09-17T15:44:32.300Z,15.58
2022-09-17T15:47:51.139Z,15.60
2022-09-17T15:50:35.933Z,15.60
2022-09-17T15:53:09.552Z,15.56
2022-09-17T15:55:45.956Z,15.55
2022-09-17T15:58:27.426Z,15.51
2022-09-17T16:01:17.076Z,15.57
2022-09-17T16:03:45.697Z,15.58
2022-09-17T16:06:19.454Z,15.54
2022-09-17T16:09:01.386Z,15.61
2022-09-17T16:11:33.126Z,15.68
2022-09-17T16:14:01.714Z,15.74
2022-09-17T16:16:38.297Z,15.76
2022-09-17T16:19:06.705Z,15.79
2022-09-17T16:21:34.711Z,15.79
2022-09-17T16:24:02.407Z,15.77
2022-09-17T16:26:33.966Z,15.65
2022-09-17T16:29:21.285Z,15.58
2022-09-17T16:31:50.783Z,15.54
2022-09-17T16:34:18.269Z,15.50
2022-09-17T16:36:45.810Z,15.44
2022-09-17T16:39:13.650Z,15.41
2022-09-17T16:41:41.209Z,15.33
2022-09-17T16:44:09.302Z,15.16
2022-09-17T16:46:37.163Z,15.11
2022-09-17T16:49:04.745Z,15.06
2022-09-17T16:51:32.605Z,15.05
2022-09-17T16:54:00.653Z,15.03
2022-09-17T16:56:28.302Z,14.96
2022-09-17T16:58:58.817Z,14.89
2022-09-17T17:01:26.938Z,14.80
2022-09-17T17:03:55.677Z,14.81
2022-09-17T17:06:23.296Z,14.78
2022-09-17T17:08:51.888Z,14.68
2022-09-17T17:11:19.532Z,14.61
2022-09-17T17:13:47.459Z,14.55
2022-09-17T17:16:16.266Z,14.57
2022-09-17T17:18:45.205Z,14.61
2022-09-17T17:21:14.574Z,14.67
2022-09-17T17:23:47.253Z,14.72
2022-09-17T17:26:16.664Z,14.82
2022-09-17T17:28:44.386Z,14.80
2022-09-17T17:31:12.110Z,14.74
2022-09-17T17:33:39.697Z,14.74
2022-09-17T17:36:08.628Z,14.75
2022-09-17T17:38:37.296Z,14.75
2022-09-17T17:41:15.430Z,14.75
2022-09-17T17:43:43.292Z,14.67
2022-09-17T17:46:12.172Z,14.61
2022-09-17T17:48:40.549Z,14.59
2022-09-17T17:51:10.758Z,14.64
2022-09-17T17:53:42.751Z,14.64
2022-09-17T17:56:12.024Z,14.68
2022-09-17T17:58:40.719Z,14.69
2022-09-17T18:01:14.625Z,14.72
2022-09-17T18:03:42.877Z,14.69
2022-09-17T18:06:10.689Z,14.53
2022-09-17T18:08:40.460Z,14.45
2022-09-17T18:11:10.443Z,14.40
2022-09-17T18:13:39.891Z,14.31
2022-09-17T18:16:09.214Z,14.21
2022-09-17T18:18:44.721Z,14.18
2022-09-17T18:21:17.049Z,14.16
2022-09-17T18:23:45.907Z,14.10
2022-09-17T18:26:19.496Z,14.08
2022-09-17T18:28:47.962Z,13.84
2022-09-17T18:31:21.350Z,13.64
2022-09-17T18:33:57.648Z,13.55
2022-09-17T18:36:28.101Z,13.33
2022-09-17T18:39:56.399Z,13.30
2022-09-17T18:41:49.579Z,13.28
2022-09-17T18:44:19.071Z,13.28
2022-09-17T18:46:48.094Z,13.31
2022-09-17T18:49:15.960Z,13.36
2022-09-17T18:51:44.003Z,13.24
2022-09-17T18:54:13.165Z,13.09
2022-09-17T18:56:44.405Z,13.06
2022-09-17T18:59:12.145Z,13.00
2022-09-17T19:01:39.974Z,13.04
2022-09-17T19:04:08.407Z,13.05
2022-09-17T19:06:36.343Z,13.07
2022-09-17T19:09:05.217Z,13.08
2022-09-17T19:11:35.574Z,13.10
2022-09-17T19:14:03.687Z,13.09
2022-09-17T19:16:31.202Z,13.11
2022-09-17T19:18:58.753Z,13.12
2022-09-17T19:21:26.527Z,13.18
2022-09-17T19:23:54.421Z,13.23
2022-09-17T19:26:25.377Z,13.32
2022-09-17T19:28:55.291Z,13.37
2022-09-17T19:31:23.212Z,13.37
2022-09-17T19:33:52.129Z,13.32
2022-09-17T19:36:28.491Z,13.28
2022-09-17T19:38:58.810Z,13.19
2022-09-17T19:41:26.719Z,13.10
2022-09-17T19:43:58.131Z,13.10
2022-09-17T19:46:27.248Z,13.10
2022-09-17T19:48:57.237Z,13.12
2022-09-17T19:51:29.043Z,13.14
2022-09-17T19:53:57.590Z,13.13
2022-09-17T19:56:27.689Z,13.14
2022-09-17T19:58:56.749Z,13.12
2022-09-17T20:01:24.743Z,13.08
2022-09-17T20:03:53.385Z,13.09
2022-09-17T20:06:23.410Z,13.13
2022-09-17T20:08:54.444Z,13.19
2022-09-17T20:11:24.262Z,13.18
2022-09-17T20:14:07.132Z,13.22
2022-09-17T20:16:37.247Z,13.15
2022-09-17T20:19:07.165Z,13.07
2022-09-17T20:21:35.190Z,13.02
2022-09-17T20:24:02.858Z,12.95
2022-09-17T20:26:30.744Z,12.76
2022-09-17T20:28:58.257Z,12.66
2022-09-17T20:31:31.590Z,12.61
2022-09-17T20:34:02.434Z,12.64
2022-09-17T20:36:36.439Z,12.68
2022-09-17T20:39:12.279Z,12.82
2022-09-17T20:41:41.985Z,12.80
2022-09-17T20:44:09.763Z,12.65
2022-09-17T20:46:37.353Z,12.63
2022-09-17T20:49:05.496Z,12.62
2022-09-17T20:51:34.053Z,12.66
2022-09-17T20:54:02.092Z,12.70
2022-09-17T20:56:33.318Z,12.76
2022-09-17T20:59:13.022Z,12.72
2022-09-17T21:01:44.698Z,12.64
2022-09-17T21:04:16.677Z,12.54
2022-09-17T21:06:44.942Z,12.51
2022-09-17T21:09:17.228Z,12.49
2022-09-17T21:11:47.801Z,12.51
2022-09-17T21:14:17.202Z,12.52
2022-09-17T21:16:45.860Z,12.55
2022-09-17T21:19:16.380Z,12.53
2022-09-17T21:21:44.799Z,12.51
2022-09-17T21:24:18.076Z,12.37
2022-09-17T21:26:47.507Z,12.35
2022-09-17T21:29:15.360Z,12.38
2022-09-17T21:31:45.047Z,12.39
2022-09-17T21:34:17.550Z,12.46
2022-09-17T21:36:52.504Z,12.54
2022-09-17T21:39:22.809Z,12.56
2022-09-17T21:41:51.189Z,12.50
2022-09-17T21:44:24.574Z,12.43
2022-09-17T21:46:59.621Z,12.35
2022-09-17T21:49:31.421Z,12.35
2022-09-17T21:52:04.414Z,12.40
2022-09-17T21:54:36.433Z,12.45
2022-09-17T21:57:09.262Z,12.43
2022-09-17T21:59:38.570Z,12.39
2022-09-17T22:02:07.189Z,12.43
2022-09-17T22:04:34.658Z,12.47
2022-09-17T22:07:02.316Z,12.44
2022-09-17T22:09:30.430Z,12.42
2022-09-17T22:11:58.429Z,12.40
2022-09-17T22:14:25.941Z,12.40
2022-09-17T22:16:57.000Z,12.42
2022-09-17T22:19:25.726Z,12.47
2022-09-17T22:21:55.538Z,12.47
2022-09-17T22:24:24.463Z,12.53
2022-09-17T22:26:57.229Z,12.60
2022-09-17T22:29:28.531Z,12.50
2022-09-17T22:31:57.410Z,12.53
2022-09-17T22:34:26.016Z,12.41
2022-09-17T22:36:53.770Z,12.19
2022-09-17T22:39:21.968Z,12.26
2022-09-17T22:41:50.220Z,12.05
2022-09-17T22:44:20.136Z,12.05
2022-09-17T22:46:51.650Z,12.08
2022-09-17T22:49:20.136Z,12.19
2022-09-17T22:51:48.049Z,12.33
2022-09-17T22:54:17.781Z,12.19
2022-09-17T22:56:47.338Z,12.18
2022-09-17T22:59:15.183Z,12.25
2022-09-17T23:01:43.069Z,12.33
2022-09-17T23:04:11.076Z,12.34
2022-09-17T23:06:42.251Z,12.41
2022-09-17T23:09:11.592Z,12.27
2022-09-17T23:11:40.588Z,12.30
2022-09-17T23:14:12.867Z,12.18
2022-09-17T23:16:47.408Z,12.09
2022-09-17T23:19:18.829Z,11.95
2022-09-17T23:21:47.264Z,12.07
2022-09-17T23:24:21.750Z,12.20
2022-09-17T23:26:50.722Z,12.10
2022-09-17T23:29:19.101Z,12.02
2022-09-17T23:31:46.798Z,11.94
2022-09-17T23:34:14.773Z,11.99
2022-09-17T23:36:42.528Z,12.02
2022-09-17T23:39:12.054Z,12.08
2022-09-17T23:41:43.445Z,12.01
2022-09-17T23:44:15.796Z,12.01
2022-09-17T23:46:46.177Z,12.07
2022-09-17T23:49:15.595Z,12.16
2022-09-17T23:51:46.547Z,12.23
2022-09-17T23:54:14.372Z,12.09
2022-09-17T23:56:42.025Z,11.94
2022-09-17T23:59:11.136Z,11.97
